Time;durP1;ratioP1;P1;durP2;ratioP2;P2;SDS_P1;SDS_P2;PMS_P1;PMS_P2;Temp;Humidity;BMP_temperature;BMP_pressure;BME280_temperature;BME280_humidity;BME280_pressure;Samples;Min_cycle;Max_cycle;Signal;HPM_P1;HPM_P2
2022/12/16 00:01:42;;;;;;;8.82;5.82;;;;;;;13.95;57.99;99432.44;4976716;28;20130;-67
2022/12/16 00:04:10;;;;;;;9.63;6.45;;;;;;;13.91;58.32;99431.00;4975729;28;20072;-68
2022/12/16 00:06:38;;;;;;;10.40;6.80;;;;;;;13.87;58.23;99429.56;4958901;28;20413;-68
2022/12/16 00:09:06;;;;;;;9.13;6.22;;;;;;;13.83;58.32;99425.47;4975628;28;20083;-68
2022/12/16 00:11:35;;;;;;;9.18;6.13;;;;;;;13.79;58.37;99408.78;4975704;28;20053;-68
2022/12/16 00:14:03;;;;;;;9.88;6.45;;;;;;;13.77;58.42;99407.22;4975629;28;20498;-67
2022/12/16 00:16:31;;;;;;;9.18;6.40;;;;;;;13.72;58.54;99411.16;4975774;28;20042;-68
2022/12/16 00:19:01;;;;;;;8.35;5.40;;;;;;;13.70;58.55;99406.88;4975645;28;20073;-68
2022/12/16 00:21:29;;;;;;;9.75;6.55;;;;;;;13.66;58.54;99400.94;4975612;28;20470;-67
2022/12/16 00:23:58;;;;;;;9.07;5.70;;;;;;;13.63;58.53;99395.03;4976075;28;20113;-67
2022/12/16 00:26:26;;;;;;;11.25;6.43;;;;;;;13.59;58.69;99394.41;4975525;28;20054;-67
2022/12/16 00:28:54;;;;;;;9.38;6.28;;;;;;;13.57;58.74;99406.25;4975449;28;20051;-67
2022/12/16 00:31:22;;;;;;;9.30;5.93;;;;;;;13.53;58.63;99404.84;4958019;28;20059;-67
2022/12/16 00:33:51;;;;;;;9.82;5.82;;;;;;;13.52;58.62;99403.13;4975132;28;20474;-67
2022/12/16 00:36:21;;;;;;;7.40;5.38;;;;;;;13.50;58.73;99397.03;4974636;28;20061;-67
2022/12/16 00:38:50;;;;;;;10.00;6.05;;;;;;;13.47;58.69;99403.53;4994245;28;20490;-67
2022/12/16 00:41:19;;;;;;;9.20;6.28;;;;;;;13.44;58.74;99407.31;4987157;28;20050;-67
2022/12/16 00:43:47;;;;;;;9.00;5.93;;;;;;;13.41;58.79;99407.59;4994834;28;20046;-67
2022/12/16 00:46:16;;;;;;;8.82;5.72;;;;;;;13.38;58.76;99407.81;4994505;28;20046;-67
2022/12/16 00:48:45;;;;;;;8.70;5.55;;;;;;;13.35;58.80;99401.91;4994488;28;20138;-67
2022/12/16 00:51:13;;;;;;;9.55;6.05;;;;;;;13.32;58.88;99396.81;4994146;28;20113;-67
2022/12/16 00:53:42;;;;;;;9.13;5.70;;;;;;;13.29;58.97;99407.75;4994499;28;20142;-67
2022/12/16 00:56:14;;;;;;;9.07;5.53;;;;;;;13.26;59.01;99398.16;4994400;28;20046;-67
2022/12/16 00:58:42;;;;;;;8.38;5.28;;;;;;;13.24;59.12;99389.41;4995161;28;20149;-67
2022/12/16 01:01:10;;;;;;;8.45;5.57;;;;;;;13.22;59.08;99390.50;4994359;28;20046;-67
2022/12/16 01:03:39;;;;;;;8.90;5.70;;;;;;;13.18;59.03;99380.03;4994340;28;20042;-68
2022/12/16 01:06:09;;;;;;;8.70;5.63;;;;;;;13.16;58.90;99381.16;4994104;28;20044;-66
2022/12/16 01:08:38;;;;;;;8.15;5.45;;;;;;;13.13;59.04;99363.53;4994298;28;20050;-67
2022/12/16 01:11:10;;;;;;;8.88;5.68;;;;;;;13.11;59.19;99360.09;4994022;28;20049;-67
2022/12/16 01:13:38;;;;;;;8.30;5.90;;;;;;;13.07;59.27;99349.78;4993972;28;20446;-67
2022/12/16 01:16:07;;;;;;;8.48;5.50;;;;;;;13.05;59.09;99349.94;4976591;28;20047;-67
2022/12/16 01:18:36;;;;;;;8.88;5.30;;;;;;;13.03;59.21;99340.34;4993942;28;20050;-67
2022/12/16 01:21:05;;;;;;;7.72;5.20;;;;;;;13.00;59.06;99337.91;4992938;28;20046;-68
2022/12/16 01:23:33;;;;;;;8.13;5.50;;;;;;;12.99;58.99;99336.19;4994082;28;20042;-67
2022/12/16 01:26:02;;;;;;;7.32;5.05;;;;;;;12.96;59.19;99337.31;4994138;28;20077;-67
2022/12/16 01:28:32;;;;;;;7.32;5.15;;;;;;;12.92;59.34;99325.16;4993881;28;20101;-67
2022/12/16 01:31:01;;;;;;;7.95;5.25;;;;;;;12.90;59.41;99327.97;4994023;28;20046;-68
2022/12/16 01:33:30;;;;;;;9.00;5.53;;;;;;;12.89;59.48;99320.06;4993598;28;20057;-68
2022/12/16 01:36:01;;;;;;;7.63;5.25;;;;;;;12.85;59.44;99303.44;4994526;28;20046;-68
2022/12/16 01:38:29;;;;;;;8.00;5.22;;;;;;;12.84;59.47;99300.91;4994166;28;20057;-66
2022/12/16 01:40:58;;;;;;;8.38;5.28;;;;;;;12.80;59.73;99294.09;4994295;28;20485;-68
2022/12/16 01:43:28;;;;;;;7.60;5.10;;;;;;;12.78;59.62;99290.69;4994219;28;20044;-67
2022/12/16 01:46:03;;;;;;;8.05;5.55;;;;;;;12.75;59.45;99275.75;4993787;28;20050;-67
2022/12/16 01:48:39;;;;;;;8.07;4.90;;;;;;;12.74;59.50;99278.53;4976512;28;20056;-67
2022/12/16 01:51:13;;;;;;;7.78;4.97;;;;;;;12.71;59.48;99268.09;4994065;28;20476;-67
2022/12/16 01:53:43;;;;;;;9.27;5.45;;;;;;;12.69;59.67;99262.88;4993721;28;20051;-67
2022/12/16 01:56:31;;;;;;;8.52;4.97;;;;;;;12.67;59.70;99256.81;4993891;28;20050;-67
2022/12/16 01:59:00;;;;;;;7.63;5.00;;;;;;;12.64;59.66;99245.50;4993968;28;20439;-67
2022/12/16 02:01:30;;;;;;;8.70;5.47;;;;;;;12.62;59.81;99245.66;4993835;28;20441;-68
2022/12/16 02:04:02;;;;;;;7.55;5.32;;;;;;;12.59;59.76;99244.09;4994039;28;20064;-68
2022/12/16 02:06:31;;;;;;;7.82;5.10;;;;;;;12.58;59.52;99230.84;4993820;28;20069;-68
2022/12/16 02:09:05;;;;;;;8.60;5.15;;;;;;;12.56;59.63;99225.63;4993348;28;20478;-68
2022/12/16 02:11:51;;;;;;;;;;;;;;;12.53;59.64;99212.50;4994213;28;20043;-68
2022/12/16 02:14:35;;;;;;;7.45;4.50;;;;;;;12.50;59.79;99199.38;4985821;28;19968;-68
2022/12/16 02:17:14;;;;;;;7.28;4.63;;;;;;;12.50;59.93;99190.50;4994169;28;20440;-68
2022/12/16 02:20:15;;;;;;;8.05;4.70;;;;;;;12.48;59.90;99177.28;4993767;28;20053;-68
2022/12/16 02:23:00;;;;;;;7.18;4.68;;;;;;;12.46;59.76;99160.53;4993693;28;20133;-69
2022/12/16 02:26:02;;;;;;;7.22;4.55;;;;;;;12.44;59.85;99143.72;4976497;28;20050;-68
2022/12/16 02:28:52;;;;;;;6.93;4.45;;;;;;;12.41;60.07;99127.97;4993593;28;20043;-68
2022/12/16 02:31:29;;;;;;;6.65;4.18;;;;;;;12.38;60.09;99117.53;4994377;28;20042;-67
2022/12/16 02:34:15;;;;;;;7.95;4.82;;;;;;;12.38;60.08;99109.50;4979710;28;20129;-67
2022/12/16 02:37:05;;;;;;;7.35;4.75;;;;;;;12.35;60.00;99115.09;4997621;28;20050;-68
2022/12/16 02:39:38;;;;;;;7.05;4.50;;;;;;;12.33;59.94;99115.22;4997389;28;20386;-67
2022/12/16 02:42:14;;;;;;;6.32;4.20;;;;;;;12.32;60.08;99120.72;4979575;28;20450;-67
2022/12/16 02:44:51;;;;;;;7.05;4.60;;;;;;;12.31;59.98;99105.66;4997002;28;20050;-68
2022/12/16 02:47:20;;;;;;;7.15;4.65;;;;;;;12.28;60.15;99111.28;4996849;28;20043;-67
2022/12/16 02:49:51;;;;;;;7.43;4.47;;;;;;;12.26;59.97;99113.25;4997273;28;20444;-68
2022/12/16 02:52:22;;;;;;;6.80;4.18;;;;;;;12.25;59.93;99116.88;4979579;28;20074;-67
2022/12/16 02:54:55;;;;;;;6.15;4.32;;;;;;;12.23;60.08;99124.16;4996436;28;20601;-66
2022/12/16 02:57:57;;;;;;;6.28;4.38;;;;;;;12.21;59.98;99132.31;4996751;28;20080;-67
2022/12/16 03:00:26;;;;;;;7.07;4.40;;;;;;;12.19;60.07;99141.47;4996782;28;20077;-67
2022/12/16 03:03:01;;;;;;;6.90;4.18;;;;;;;12.17;60.01;99138.94;4996614;28;20445;-67
2022/12/16 03:05:33;;;;;;;6.07;3.90;;;;;;;12.16;60.15;99133.69;4997053;28;20073;-67
2022/12/16 03:08:06;;;;;;;6.38;3.97;;;;;;;12.15;60.22;99123.97;4996788;28;20398;-67
2022/12/16 03:10:38;;;;;;;6.73;4.00;;;;;;;12.13;60.26;99117.91;4996795;28;20042;-67
2022/12/16 03:13:10;;;;;;;7.10;4.03;;;;;;;12.11;60.20;99119.88;4996712;28;20046;-67
2022/12/16 03:15:40;;;;;;;5.57;3.65;;;;;;;12.10;60.21;99120.84;4996718;28;20046;-67
2022/12/16 03:18:13;;;;;;;6.30;3.88;;;;;;;12.09;60.21;99111.16;4978912;28;20054;-67
2022/12/16 03:20:47;;;;;;;6.13;4.27;;;;;;;12.06;60.33;99092.66;4979096;28;20043;-67
2022/12/16 03:23:19;;;;;;;6.50;3.92;;;;;;;12.04;60.41;99064.25;4996397;28;20690;-67
2022/12/16 03:25:50;;;;;;;5.90;3.85;;;;;;;12.04;60.42;99039.34;4996392;28;20438;-67
2022/12/16 03:28:31;;;;;;;6.13;4.13;;;;;;;12.02;60.32;99082.25;4995838;28;20066;-67
2022/12/16 03:31:06;;;;;;;6.40;4.07;;;;;;;12.04;60.39;99071.44;4996100;28;20133;-67
2022/12/16 03:33:40;;;;;;;6.50;3.88;;;;;;;12.09;60.13;99028.28;4995541;28;20081;-67
2022/12/16 03:36:13;;;;;;;5.25;3.55;;;;;;;12.21;60.83;99040.59;4995600;28;20066;-67
2022/12/16 03:38:43;;;;;;;6.00;3.70;;;;;;;12.42;60.98;99062.78;4996509;28;20133;-67
2022/12/16 03:41:14;;;;;;;5.50;3.20;;;;;;;12.62;60.86;99090.47;4995595;28;20059;-67
2022/12/16 03:43:43;;;;;;;6.32;3.58;;;;;;;12.81;60.61;99077.19;4995239;28;20049;-67
2022/12/16 03:46:13;;;;;;;5.35;3.30;;;;;;;13.00;60.30;99087.13;4995761;28;20063;-67
2022/12/16 03:48:48;;;;;;;5.75;3.50;;;;;;;13.15;60.05;99082.25;4995253;28;20485;-67
2022/12/16 03:51:16;;;;;;;5.35;3.28;;;;;;;13.30;59.96;99088.94;4995743;28;20074;-67
2022/12/16 03:53:45;;;;;;;5.70;3.47;;;;;;;13.46;59.67;99085.72;4995643;28;20048;-67
2022/12/16 03:56:13;;;;;;;5.15;3.00;;;;;;;13.63;59.55;99068.13;4995221;28;20560;-67
2022/12/16 03:58:42;;;;;;;4.75;3.08;;;;;;;13.76;59.40;99068.69;4995614;28;20121;-68
2022/12/16 04:01:10;;;;;;;4.57;2.85;;;;;;;13.86;59.26;99060.63;4995507;28;20054;-67
2022/12/16 04:03:39;;;;;;;5.00;2.97;;;;;;;13.93;59.11;99064.44;4995546;28;20134;-68
2022/12/16 04:06:08;;;;;;;4.32;2.90;;;;;;;13.95;58.96;99052.59;4995341;28;20054;-68
2022/12/16 04:08:37;;;;;;;4.53;2.90;;;;;;;13.96;59.03;99035.50;4978188;28;20065;-67
2022/12/16 04:25:07;;;;;;;4.45;2.65;;;;;;;13.78;59.41;99017.63;4995599;28;20043;-66
2022/12/16 04:27:36;;;;;;;4.78;2.50;;;;;;;13.73;59.50;99024.25;4995168;28;20050;-67
2022/12/16 04:30:20;;;;;;;4.40;2.83;;;;;;;13.70;59.60;99016.50;4994851;28;20170;-67
